createdAt,value
2022-09-07T00:05:02.345Z,13.47
2022-09-07T00:10:10.425Z,13.42
2022-09-07T00:15:17.908Z,13.46
2022-09-07T00:20:26.156Z,13.49
2022-09-07T00:25:33.752Z,13.38
2022-09-07T00:30:41.644Z,13.3
2022-09-07T00:35:49.705Z,13.26
2022-09-07T00:40:56.013Z,13.15
2022-09-07T00:46:04.338Z,13.22
2022-09-07T00:52:43.935Z,13.12
2022-09-07T00:57:50.222Z,12.99
2022-09-07T01:02:58.698Z,12.96
2022-09-07T01:08:06.767Z,13.04
2022-09-07T01:13:13.831Z,13.09
2022-09-07T01:18:21.429Z,13.2
2022-09-07T01:23:28.255Z,13.18
2022-09-07T01:28:36.030Z,13.1
2022-09-07T01:33:45.125Z,13.04
2022-09-07T01:38:53.341Z,13.04
2022-09-07T01:44:01.542Z,12.9
2022-09-07T01:49:08.744Z,12.84
2022-09-07T01:54:17.473Z,12.78
2022-09-07T01:59:26.054Z,12.75
2022-09-07T02:04:34.693Z,12.78
2022-09-07T02:09:42.657Z,12.76
2022-09-07T02:14:50.496Z,12.74
2022-09-07T02:19:58.265Z,12.63
2022-09-07T02:25:05.732Z,12.54
2022-09-07T02:30:14.013Z,12.59
2022-09-07T02:35:21.979Z,12.61
2022-09-07T02:40:29.628Z,12.58
2022-09-07T02:45:37.795Z,12.54
2022-09-07T02:50:44.103Z,12.57
2022-09-07T02:55:51.719Z,12.57
2022-09-07T03:00:59.445Z,12.52
2022-09-07T03:06:08.184Z,12.61
2022-09-07T03:11:16.327Z,12.69
2022-09-07T03:16:23.984Z,12.52
2022-09-07T03:21:32.828Z,12.4
2022-09-07T03:26:39.187Z,12.4
2022-09-07T03:31:46.855Z,12.46
2022-09-07T03:36:55.080Z,12.35
2022-09-07T03:42:02.856Z,12.22
2022-09-07T03:47:10.320Z,12.16
2022-09-07T03:52:18.111Z,12.13
2022-09-07T03:57:24.737Z,12.4
2022-09-07T04:02:32.580Z,12.66
2022-09-07T04:07:39.784Z,12.57
2022-09-07T04:12:47.065Z,12.44
2022-09-07T04:17:54.173Z,12.44
2022-09-07T04:23:02.547Z,12.28
2022-09-07T04:28:09.196Z,12.32
2022-09-07T04:33:16.974Z,12.57
2022-09-07T04:38:25.534Z,12.8
2022-09-07T04:43:33.309Z,12.78
2022-09-07T04:48:40.938Z,12.74
2022-09-07T04:53:48.378Z,12.84
2022-09-07T04:58:57.751Z,13.07
2022-09-07T05:04:04.723Z,13.28
2022-09-07T05:09:12.731Z,13.54
2022-09-07T05:14:19.418Z,13.96
2022-09-07T05:19:26.875Z,14.48
2022-09-07T05:24:36.283Z,15.02
2022-09-07T05:29:44.579Z,15.21
2022-09-07T05:34:52.312Z,15.42
2022-09-07T05:40:00.221Z,16.04
2022-09-07T05:45:08.902Z,16.8
2022-09-07T05:50:16.539Z,16.82
2022-09-07T05:55:24.019Z,16.41
2022-09-07T06:00:32.259Z,16.15
2022-09-07T06:05:40.060Z,16.18
2022-09-07T06:10:47.665Z,16.4
2022-09-07T06:15:55.152Z,16.66
2022-09-07T06:21:02.946Z,16.83
2022-09-07T06:26:10.404Z,17.23
2022-09-07T06:31:18.361Z,17.71
2022-09-07T08:14:21.550Z,21.6
2022-09-07T08:19:29.599Z,21.56
2022-09-07T08:24:36.702Z,21.83
2022-09-07T08:29:44.566Z,22.08
2022-09-07T08:34:52.012Z,22.51
2022-09-07T08:39:58.968Z,22.8
2022-09-07T08:45:06.920Z,22.76
2022-09-07T08:50:14.069Z,22.82
2022-09-07T08:55:21.046Z,22.92
2022-09-07T09:00:28.408Z,22.73
2022-09-07T09:05:37.256Z,22.93
2022-09-07T09:10:46.198Z,23.25
2022-09-07T09:15:54.328Z,23.46
2022-09-07T09:21:03.414Z,24.0
2022-09-07T09:26:11.457Z,23.88
2022-09-07T09:31:18.617Z,23.94
2022-09-07T09:36:25.816Z,24.2
2022-09-07T09:41:34.267Z,24.18
2022-09-07T09:46:42.137Z,24.39
2022-09-07T09:51:50.262Z,24.57
2022-09-07T09:57:33.684Z,25.24
2022-09-07T10:02:49.385Z,25.72
2022-09-07T10:07:57.406Z,25.66
2022-09-07T10:13:05.366Z,25.52
2022-09-07T10:18:13.725Z,25.7
2022-09-07T15:27:00.718Z,19.46
2022-09-07T15:32:10.362Z,20.32
2022-09-07T15:37:18.181Z,20.44
2022-09-07T15:42:26.136Z,20.2
2022-09-07T15:47:33.713Z,20.23
2022-09-07T15:52:41.302Z,20.66
2022-09-07T15:57:49.022Z,21.96
2022-09-07T16:02:57.348Z,23.1
2022-09-07T16:08:04.854Z,23.7
2022-09-07T16:13:13.049Z,24.21
2022-09-07T16:18:20.805Z,23.66
2022-09-07T16:23:28.421Z,22.26
2022-09-07T16:28:36.067Z,21.03
2022-09-07T16:37:09.878Z,19.74
2022-09-07T16:42:15.313Z,19.2
2022-09-07T16:47:22.886Z,18.88
2022-09-07T16:52:29.703Z,18.66
2022-09-07T16:57:37.312Z,18.5
2022-09-07T17:02:44.831Z,18.32
2022-09-07T17:07:53.161Z,18.12
2022-09-07T17:13:01.190Z,17.91
2022-09-07T17:18:09.868Z,17.71
2022-09-07T17:23:17.338Z,17.56
2022-09-07T17:28:25.132Z,17.42
2022-09-07T17:33:33.036Z,17.23
2022-09-07T17:44:10.249Z,16.99
2022-09-07T17:49:17.658Z,16.99
2022-09-07T17:54:26.748Z,16.86
2022-09-07T17:59:33.977Z,16.75
2022-09-07T18:04:41.399Z,16.72
2022-09-07T18:09:48.991Z,16.54
2022-09-07T18:14:56.957Z,16.38
2022-09-07T18:20:04.098Z,16.26
2022-09-07T18:25:12.603Z,16.2
2022-09-07T18:30:21.204Z,16.12
2022-09-07T18:35:28.246Z,16.12
2022-09-07T18:40:35.418Z,16.19
2022-09-07T18:45:43.760Z,16.14
2022-09-07T18:51:05.846Z,15.98
2022-09-07T18:56:12.390Z,15.82
2022-09-07T19:01:19.292Z,15.97
2022-09-07T19:06:26.784Z,15.98
2022-09-07T19:11:34.641Z,15.82
2022-09-07T19:16:42.623Z,15.74
2022-09-07T19:21:50.502Z,15.84
2022-09-07T19:26:57.504Z,15.84
2022-09-07T19:32:05.426Z,15.8
2022-09-07T19:37:13.561Z,15.8
2022-09-07T19:42:21.741Z,15.79
2022-09-07T19:47:29.508Z,15.7
2022-09-07T19:52:37.355Z,15.69
2022-09-07T19:57:45.113Z,15.62
2022-09-07T20:02:52.988Z,15.48
2022-09-07T20:08:00.307Z,15.32
2022-09-07T20:13:08.186Z,15.4
2022-09-07T20:18:15.989Z,15.51
2022-09-07T20:23:23.400Z,15.46
2022-09-07T20:28:30.820Z,15.52
2022-09-07T20:33:37.881Z,15.4
2022-09-07T20:38:44.769Z,15.28
2022-09-07T20:43:52.214Z,15.24
2022-09-07T20:49:00.243Z,15.3
2022-09-07T20:54:08.158Z,15.42
2022-09-07T21:00:40.727Z,15.21
2022-09-07T21:05:46.429Z,15.3
2022-09-07T21:10:54.361Z,15.32
2022-09-07T21:16:01.534Z,15.22
2022-09-07T21:21:10.519Z,15.18
2022-09-07T21:26:19.652Z,15.22
2022-09-07T21:31:26.975Z,15.1
2022-09-07T21:36:34.178Z,15.06
2022-09-07T21:41:41.372Z,15.17
2022-09-07T21:46:49.299Z,15.03
2022-09-07T21:51:56.421Z,15.01
2022-09-07T21:57:04.254Z,15.05
2022-09-07T22:02:11.471Z,14.94
2022-09-07T22:07:19.310Z,14.86
2022-09-07T22:12:26.803Z,14.89
2022-09-07T22:17:42.298Z,14.84
2022-09-07T22:22:48.552Z,14.85
2022-09-07T22:27:58.073Z,14.75
2022-09-07T22:33:07.653Z,14.62
2022-09-07T22:38:15.302Z,14.64
2022-09-07T22:43:22.563Z,14.71
2022-09-07T22:48:29.689Z,14.84
2022-09-07T22:53:37.535Z,14.8
2022-09-07T22:58:45.309Z,14.7
2022-09-07T23:04:12.705Z,14.63
2022-09-07T23:04:15.647Z,14.63
2022-09-07T23:09:24.204Z,14.74
2022-09-07T23:14:32.648Z,14.76
2022-09-07T23:19:40.409Z,14.63
2022-09-07T23:24:48.301Z,14.54
2022-09-07T23:29:55.697Z,14.42
2022-09-07T23:35:02.696Z,14.48
2022-09-07T23:40:10.178Z,14.52
2022-09-07T23:45:24.291Z,14.38
2022-09-07T23:50:32.578Z,14.32
2022-09-07T23:55:41.603Z,14.28
